sensor_id;sensor_type;location;lat;lon;timestamp;P1;durP1;ratioP1;P2;durP2;ratioP2
22476;SDS011;65006;51.698;-0.292;2023-07-20T00:01:12;0.93;;;0.43;;
22476;SDS011;65006;51.698;-0.292;2023-07-20T00:03:38;1.27;;;0.43;;
22476;SDS011;65006;51.698;-0.292;2023-07-20T00:06:04;2.53;;;0.50;;
22476;SDS011;65006;51.698;-0.292;2023-07-20T00:08:30;1.92;;;0.50;;
22476;SDS011;65006;51.698;-0.292;2023-07-20T00:10:56;2.45;;;0.60;;
22476;SDS011;65006;51.698;-0.292;2023-07-20T00:15:49;1.15;;;0.32;;
22476;SDS011;65006;51.698;-0.292;2023-07-20T00:18:15;1.25;;;0.45;;
22476;SDS011;65006;51.698;-0.292;2023-07-20T00:20:41;1.15;;;0.65;;
22476;SDS011;65006;51.698;-0.292;2023-07-20T00:23:07;2.58;;;0.57;;
22476;SDS011;65006;51.698;-0.292;2023-07-20T00:25:33;0.75;;;0.65;;
22476;SDS011;65006;51.698;-0.292;2023-07-20T00:27:59;0.73;;;0.50;;
22476;SDS011;65006;51.698;-0.292;2023-07-20T00:30:25;3.20;;;0.55;;
22476;SDS011;65006;51.698;-0.292;2023-07-20T00:32:51;2.83;;;0.55;;
22476;SDS011;65006;51.698;-0.292;2023-07-20T00:35:17;1.13;;;0.75;;
22476;SDS011;65006;51.698;-0.292;2023-07-20T00:37:43;4.05;;;1.40;;
22476;SDS011;65006;51.698;-0.292;2023-07-20T00:40:09;4.07;;;1.05;;
22476;SDS011;65006;51.698;-0.292;2023-07-20T00:42:35;1.45;;;1.20;;
22476;SDS011;65006;51.698;-0.292;2023-07-20T00:45:01;5.07;;;1.08;;
22476;SDS011;65006;51.698;-0.292;2023-07-20T00:47:27;0.88;;;0.60;;
22476;SDS011;65006;51.698;-0.292;2023-07-20T00:49:53;0.90;;;0.68;;
22476;SDS011;65006;51.698;-0.292;2023-07-20T00:52:23;1.45;;;0.73;;
22476;SDS011;65006;51.698;-0.292;2023-07-20T00:54:50;1.40;;;0.50;;
22476;SDS011;65006;51.698;-0.292;2023-07-20T00:57:17;0.75;;;0.65;;
22476;SDS011;65006;51.698;-0.292;2023-07-20T00:59:43;1.35;;;1.05;;
22476;SDS011;65006;51.698;-0.292;2023-07-20T01:02:09;4.18;;;0.80;;
22476;SDS011;65006;51.698;-0.292;2023-07-20T01:04:35;2.90;;;0.77;;
22476;SDS011;65006;51.698;-0.292;2023-07-20T01:12:49;5.88;;;1.55;;
22476;SDS011;65006;51.698;-0.292;2023-07-20T01:15:07;3.85;;;1.00;;
22476;SDS011;65006;51.698;-0.292;2023-07-20T01:17:34;2.28;;;1.10;;
22476;SDS011;65006;51.698;-0.292;2023-07-20T01:20:00;1.60;;;0.80;;
22476;SDS011;65006;51.698;-0.292;2023-07-20T01:32:58;3.88;;;0.88;;
22476;SDS011;65006;51.698;-0.292;2023-07-20T01:35:26;2.38;;;1.35;;
22476;SDS011;65006;51.698;-0.292;2023-07-20T01:37:53;2.67;;;0.80;;
22476;SDS011;65006;51.698;-0.292;2023-07-20T01:40:19;1.52;;;0.80;;
22476;SDS011;65006;51.698;-0.292;2023-07-20T01:42:46;1.08;;;0.77;;
22476;SDS011;65006;51.698;-0.292;2023-07-20T01:45:12;2.10;;;0.73;;
22476;SDS011;65006;51.698;-0.292;2023-07-20T01:47:38;0.85;;;0.60;;
22476;SDS011;65006;51.698;-0.292;2023-07-20T01:50:06;1.67;;;0.90;;
22476;SDS011;65006;51.698;-0.292;2023-07-20T01:52:32;1.02;;;0.60;;
22476;SDS011;65006;51.698;-0.292;2023-07-20T01:54:58;2.20;;;0.70;;
22476;SDS011;65006;51.698;-0.292;2023-07-20T01:57:24;1.75;;;0.68;;
22476;SDS011;65006;51.698;-0.292;2023-07-20T01:59:50;2.42;;;0.82;;
22476;SDS011;65006;51.698;-0.292;2023-07-20T02:02:16;2.30;;;1.33;;
22476;SDS011;65006;51.698;-0.292;2023-07-20T02:04:43;4.15;;;1.15;;
22476;SDS011;65006;51.698;-0.292;2023-07-20T02:07:09;0.95;;;0.77;;
22476;SDS011;65006;51.698;-0.292;2023-07-20T02:09:35;1.42;;;0.98;;
22476;SDS011;65006;51.698;-0.292;2023-07-20T02:12:01;1.08;;;0.80;;
22476;SDS011;65006;51.698;-0.292;2023-07-20T02:14:28;1.42;;;0.80;;
22476;SDS011;65006;51.698;-0.292;2023-07-20T02:16:53;1.60;;;1.10;;
22476;SDS011;65006;51.698;-0.292;2023-07-20T02:19:24;1.98;;;1.00;;
22476;SDS011;65006;51.698;-0.292;2023-07-20T02:21:51;1.70;;;1.00;;
22476;SDS011;65006;51.698;-0.292;2023-07-20T02:24:17;2.80;;;1.02;;
22476;SDS011;65006;51.698;-0.292;2023-07-20T02:26:43;4.70;;;0.98;;
22476;SDS011;65006;51.698;-0.292;2023-07-20T02:29:09;1.13;;;0.80;;
22476;SDS011;65006;51.698;-0.292;2023-07-20T02:31:38;1.77;;;0.95;;
22476;SDS011;65006;51.698;-0.292;2023-07-20T02:34:07;1.15;;;0.80;;
22476;SDS011;65006;51.698;-0.292;2023-07-20T02:36:34;1.00;;;0.77;;
22476;SDS011;65006;51.698;-0.292;2023-07-20T02:39:00;3.00;;;0.88;;
22476;SDS011;65006;51.698;-0.292;2023-07-20T02:41:29;2.28;;;1.00;;
22476;SDS011;65006;51.698;-0.292;2023-07-20T02:43:55;2.25;;;0.80;;
22476;SDS011;65006;51.698;-0.292;2023-07-20T02:46:21;3.72;;;1.20;;
22476;SDS011;65006;51.698;-0.292;2023-07-20T02:48:47;2.90;;;1.00;;
22476;SDS011;65006;51.698;-0.292;2023-07-20T02:51:13;1.50;;;0.82;;
22476;SDS011;65006;51.698;-0.292;2023-07-20T02:53:39;4.22;;;0.93;;
22476;SDS011;65006;51.698;-0.292;2023-07-20T02:56:06;1.25;;;0.70;;
22476;SDS011;65006;51.698;-0.292;2023-07-20T02:58:35;1.50;;;0.73;;
22476;SDS011;65006;51.698;-0.292;2023-07-20T03:01:02;2.22;;;0.90;;
22476;SDS011;65006;51.698;-0.292;2023-07-20T03:03:28;8.77;;;1.17;;
22476;SDS011;65006;51.698;-0.292;2023-07-20T03:05:54;1.85;;;0.90;;
22476;SDS011;65006;51.698;-0.292;2023-07-20T03:08:21;3.42;;;0.80;;
22476;SDS011;65006;51.698;-0.292;2023-07-20T03:10:47;1.58;;;0.95;;
22476;SDS011;65006;51.698;-0.292;2023-07-20T03:15:41;1.23;;;0.93;;
22476;SDS011;65006;51.698;-0.292;2023-07-20T03:18:07;0.98;;;0.77;;
22476;SDS011;65006;51.698;-0.292;2023-07-20T03:20:35;1.40;;;1.05;;
22476;SDS011;65006;51.698;-0.292;2023-07-20T03:23:01;1.50;;;0.93;;
22476;SDS011;65006;51.698;-0.292;2023-07-20T03:25:27;2.28;;;1.00;;
22476;SDS011;65006;51.698;-0.292;2023-07-20T03:27:53;2.92;;;0.88;;
22476;SDS011;65006;51.698;-0.292;2023-07-20T03:30:19;1.25;;;0.70;;
22476;SDS011;65006;51.698;-0.292;2023-07-20T03:32:45;0.70;;;0.63;;
22476;SDS011;65006;51.698;-0.292;2023-07-20T03:35:11;2.65;;;1.13;;
22476;SDS011;65006;51.698;-0.292;2023-07-20T03:37:37;2.30;;;0.85;;
22476;SDS011;65006;51.698;-0.292;2023-07-20T03:40:05;1.63;;;1.00;;
22476;SDS011;65006;51.698;-0.292;2023-07-20T03:42:32;1.55;;;0.90;;
22476;SDS011;65006;51.698;-0.292;2023-07-20T03:44:58;2.63;;;1.10;;
22476;SDS011;65006;51.698;-0.292;2023-07-20T03:47:24;0.82;;;0.75;;
22476;SDS011;65006;51.698;-0.292;2023-07-20T03:49:50;1.15;;;0.90;;
22476;SDS011;65006;51.698;-0.292;2023-07-20T03:52:16;2.30;;;1.00;;
22476;SDS011;65006;51.698;-0.292;2023-07-20T03:54:42;2.63;;;1.13;;
22476;SDS011;65006;51.698;-0.292;2023-07-20T03:57:09;2.97;;;1.25;;
22476;SDS011;65006;51.698;-0.292;2023-07-20T03:59:36;2.63;;;0.93;;
22476;SDS011;65006;51.698;-0.292;2023-07-20T04:02:03;1.67;;;0.90;;
22476;SDS011;65006;51.698;-0.292;2023-07-20T04:04:30;4.18;;;0.95;;
22476;SDS011;65006;51.698;-0.292;2023-07-20T04:06:56;1.63;;;1.10;;
22476;SDS011;65006;51.698;-0.292;2023-07-20T04:09:22;2.33;;;0.98;;
22476;SDS011;65006;51.698;-0.292;2023-07-20T04:11:49;1.60;;;0.82;;
22476;SDS011;65006;51.698;-0.292;2023-07-20T04:14:15;1.95;;;0.90;;
22476;SDS011;65006;51.698;-0.292;2023-07-20T04:16:41;2.30;;;1.10;;
22476;SDS011;65006;51.698;-0.292;2023-07-20T04:19:07;2.45;;;0.93;;
22476;SDS011;65006;51.698;-0.292;2023-07-20T04:21:39;3.78;;;0.88;;
22476;SDS011;65006;51.698;-0.292;2023-07-20T04:24:06;2.42;;;1.10;;
22476;SDS011;65006;51.698;-0.292;2023-07-20T04:26:32;3.67;;;1.13;;
22476;SDS011;65006;51.698;-0.292;2023-07-20T04:28:58;2.45;;;1.02;;
22476;SDS011;65006;51.698;-0.292;2023-07-20T04:31:24;3.80;;;1.20;;
22476;SDS011;65006;51.698;-0.292;2023-07-20T04:33:50;2.35;;;1.20;;
22476;SDS011;65006;51.698;-0.292;2023-07-20T04:36:16;2.10;;;1.08;;
22476;SDS011;65006;51.698;-0.292;2023-07-20T04:38:44;2.10;;;0.90;;
22476;SDS011;65006;51.698;-0.292;2023-07-20T04:41:10;1.42;;;1.00;;
22476;SDS011;65006;51.698;-0.292;2023-07-20T04:43:43;2.28;;;1.13;;
22476;SDS011;65006;51.698;-0.292;2023-07-20T04:46:12;4.63;;;1.17;;
22476;SDS011;65006;51.698;-0.292;2023-07-20T04:48:38;1.45;;;0.98;;
22476;SDS011;65006;51.698;-0.292;2023-07-20T04:51:05;3.00;;;1.35;;
22476;SDS011;65006;51.698;-0.292;2023-07-20T04:53:31;4.57;;;1.00;;
22476;SDS011;65006;51.698;-0.292;2023-07-20T04:55:57;5.05;;;1.20;;
22476;SDS011;65006;51.698;-0.292;2023-07-20T04:58:24;1.08;;;0.90;;
22476;SDS011;65006;51.698;-0.292;2023-07-20T05:00:50;2.00;;;1.23;;
22476;SDS011;65006;51.698;-0.292;2023-07-20T05:03:16;1.65;;;1.00;;
22476;SDS011;65006;51.698;-0.292;2023-07-20T05:05:42;2.40;;;1.10;;
22476;SDS011;65006;51.698;-0.292;2023-07-20T05:08:08;2.00;;;0.80;;
22476;SDS011;65006;51.698;-0.292;2023-07-20T05:10:34;1.80;;;1.42;;
22476;SDS011;65006;51.698;-0.292;2023-07-20T05:13:00;2.85;;;1.25;;
22476;SDS011;65006;51.698;-0.292;2023-07-20T05:15:26;3.70;;;0.85;;
22476;SDS011;65006;51.698;-0.292;2023-07-20T05:17:52;1.42;;;0.98;;
22476;SDS011;65006;51.698;-0.292;2023-07-20T05:20:18;1.05;;;0.98;;
22476;SDS011;65006;51.698;-0.292;2023-07-20T05:22:45;1.77;;;1.10;;
22476;SDS011;65006;51.698;-0.292;2023-07-20T05:25:11;1.20;;;1.10;;
22476;SDS011;65006;51.698;-0.292;2023-07-20T05:27:37;4.50;;;1.42;;
22476;SDS011;65006;51.698;-0.292;2023-07-20T05:30:04;2.03;;;1.25;;
22476;SDS011;65006;51.698;-0.292;2023-07-20T05:32:30;1.70;;;1.30;;
22476;SDS011;65006;51.698;-0.292;2023-07-20T05:34:56;2.75;;;1.05;;
22476;SDS011;65006;51.698;-0.292;2023-07-20T05:37:22;3.38;;;1.40;;
22476;SDS011;65006;51.698;-0.292;2023-07-20T05:39:48;3.05;;;1.30;;
22476;SDS011;65006;51.698;-0.292;2023-07-20T05:42:15;1.75;;;1.05;;
22476;SDS011;65006;51.698;-0.292;2023-07-20T05:44:41;1.50;;;1.13;;
22476;SDS011;65006;51.698;-0.292;2023-07-20T05:47:07;2.85;;;1.13;;
22476;SDS011;65006;51.698;-0.292;2023-07-20T05:49:34;2.28;;;1.35;;
22476;SDS011;65006;51.698;-0.292;2023-07-20T05:54:26;2.05;;;1.30;;
22476;SDS011;65006;51.698;-0.292;2023-07-20T05:56:53;1.77;;;1.10;;
22476;SDS011;65006;51.698;-0.292;2023-07-20T05:59:19;4.32;;;1.48;;
22476;SDS011;65006;51.698;-0.292;2023-07-20T06:01:45;2.20;;;1.20;;
22476;SDS011;65006;51.698;-0.292;2023-07-20T06:04:13;2.72;;;1.17;;
22476;SDS011;65006;51.698;-0.292;2023-07-20T06:06:40;1.52;;;1.00;;
22476;SDS011;65006;51.698;-0.292;2023-07-20T06:09:06;3.05;;;1.00;;
22476;SDS011;65006;51.698;-0.292;2023-07-20T06:11:34;3.55;;;1.27;;
22476;SDS011;65006;51.698;-0.292;2023-07-20T06:14:00;1.65;;;0.80;;
22476;SDS011;65006;51.698;-0.292;2023-07-20T06:16:27;5.63;;;1.50;;
22476;SDS011;65006;51.698;-0.292;2023-07-20T06:18:53;2.13;;;1.23;;
22476;SDS011;65006;51.698;-0.292;2023-07-20T06:21:19;2.75;;;1.38;;
22476;SDS011;65006;51.698;-0.292;2023-07-20T06:23:45;1.75;;;1.00;;
22476;SDS011;65006;51.698;-0.292;2023-07-20T06:26:11;2.28;;;1.02;;
22476;SDS011;65006;51.698;-0.292;2023-07-20T06:28:37;2.40;;;1.13;;
22476;SDS011;65006;51.698;-0.292;2023-07-20T06:31:03;1.67;;;1.25;;
22476;SDS011;65006;51.698;-0.292;2023-07-20T06:33:29;2.00;;;1.10;;
22476;SDS011;65006;51.698;-0.292;2023-07-20T06:35:55;1.77;;;1.00;;
22476;SDS011;65006;51.698;-0.292;2023-07-20T06:38:24;1.88;;;1.08;;
22476;SDS011;65006;51.698;-0.292;2023-07-20T06:40:50;2.80;;;1.33;;
22476;SDS011;65006;51.698;-0.292;2023-07-20T06:43:17;1.65;;;1.00;;
22476;SDS011;65006;51.698;-0.292;2023-07-20T06:45:43;1.95;;;1.10;;
22476;SDS011;65006;51.698;-0.292;2023-07-20T06:48:09;1.48;;;1.00;;
22476;SDS011;65006;51.698;-0.292;2023-07-20T06:50:35;2.47;;;0.98;;
22476;SDS011;65006;51.698;-0.292;2023-07-20T06:53:01;2.60;;;1.10;;
22476;SDS011;65006;51.698;-0.292;2023-07-20T06:55:29;1.05;;;0.90;;
22476;SDS011;65006;51.698;-0.292;2023-07-20T06:57:55;1.58;;;0.77;;
22476;SDS011;65006;51.698;-0.292;2023-07-20T07:00:21;1.60;;;0.70;;
22476;SDS011;65006;51.698;-0.292;2023-07-20T07:02:47;2.72;;;0.93;;
22476;SDS011;65006;51.698;-0.292;2023-07-20T07:05:13;2.08;;;1.23;;
22476;SDS011;65006;51.698;-0.292;2023-07-20T07:07:40;3.35;;;1.13;;
22476;SDS011;65006;51.698;-0.292;2023-07-20T07:10:06;4.88;;;0.80;;
22476;SDS011;65006;51.698;-0.292;2023-07-20T07:12:33;3.83;;;1.00;;
22476;SDS011;65006;51.698;-0.292;2023-07-20T07:15:00;2.30;;;0.90;;
22476;SDS011;65006;51.698;-0.292;2023-07-20T07:17:26;2.63;;;1.00;;
22476;SDS011;65006;51.698;-0.292;2023-07-20T07:19:52;1.17;;;0.73;;
22476;SDS011;65006;51.698;-0.292;2023-07-20T07:22:20;1.52;;;0.70;;
22476;SDS011;65006;51.698;-0.292;2023-07-20T07:24:46;3.58;;;1.20;;
22476;SDS011;65006;51.698;-0.292;2023-07-20T07:27:12;1.80;;;0.73;;
22476;SDS011;65006;51.698;-0.292;2023-07-20T07:29:41;3.08;;;1.00;;
22476;SDS011;65006;51.698;-0.292;2023-07-20T07:32:09;2.10;;;0.82;;
22476;SDS011;65006;51.698;-0.292;2023-07-20T07:34:36;1.83;;;0.77;;
22476;SDS011;65006;51.698;-0.292;2023-07-20T07:37:02;4.18;;;0.70;;
22476;SDS011;65006;51.698;-0.292;2023-07-20T07:41:55;2.53;;;0.98;;
22476;SDS011;65006;51.698;-0.292;2023-07-20T07:44:21;2.35;;;0.80;;
22476;SDS011;65006;51.698;-0.292;2023-07-20T07:46:47;2.97;;;0.90;;
22476;SDS011;65006;51.698;-0.292;2023-07-20T07:51:39;3.45;;;0.90;;
22476;SDS011;65006;51.698;-0.292;2023-07-20T07:54:05;1.95;;;1.00;;
22476;SDS011;65006;51.698;-0.292;2023-07-20T07:56:31;3.67;;;1.52;;
22476;SDS011;65006;51.698;-0.292;2023-07-20T07:58:57;2.10;;;0.60;;
22476;SDS011;65006;51.698;-0.292;2023-07-20T08:01:23;1.20;;;0.70;;
22476;SDS011;65006;51.698;-0.292;2023-07-20T08:03:50;3.50;;;1.08;;
22476;SDS011;65006;51.698;-0.292;2023-07-20T08:06:16;2.03;;;0.93;;
22476;SDS011;65006;51.698;-0.292;2023-07-20T08:08:43;1.15;;;1.00;;
22476;SDS011;65006;51.698;-0.292;2023-07-20T08:11:09;3.47;;;0.90;;
22476;SDS011;65006;51.698;-0.292;2023-07-20T08:13:35;1.30;;;0.70;;
22476;SDS011;65006;51.698;-0.292;2023-07-20T08:16:01;1.42;;;0.70;;
22476;SDS011;65006;51.698;-0.292;2023-07-20T08:18:27;0.88;;;0.70;;
22476;SDS011;65006;51.698;-0.292;2023-07-20T08:20:54;3.03;;;0.82;;
22476;SDS011;65006;51.698;-0.292;2023-07-20T08:23:21;2.67;;;0.88;;
22476;SDS011;65006;51.698;-0.292;2023-07-20T08:25:47;3.45;;;0.90;;
22476;SDS011;65006;51.698;-0.292;2023-07-20T08:28:15;1.52;;;0.70;;
22476;SDS011;65006;51.698;-0.292;2023-07-20T08:30:41;1.27;;;0.57;;
22476;SDS011;65006;51.698;-0.292;2023-07-20T08:33:09;1.17;;;0.73;;
22476;SDS011;65006;51.698;-0.292;2023-07-20T08:35:35;2.20;;;0.50;;
22476;SDS011;65006;51.698;-0.292;2023-07-20T08:38:01;1.38;;;0.52;;
22476;SDS011;65006;51.698;-0.292;2023-07-20T08:40:27;1.58;;;0.90;;
22476;SDS011;65006;51.698;-0.292;2023-07-20T08:42:54;2.72;;;1.08;;
22476;SDS011;65006;51.698;-0.292;2023-07-20T08:45:21;1.80;;;0.77;;
22476;SDS011;65006;51.698;-0.292;2023-07-20T08:47:47;2.03;;;0.82;;
22476;SDS011;65006;51.698;-0.292;2023-07-20T08:50:14;2.28;;;0.90;;
22476;SDS011;65006;51.698;-0.292;2023-07-20T08:52:40;1.63;;;0.73;;
22476;SDS011;65006;51.698;-0.292;2023-07-20T08:55:06;4.35;;;1.13;;
22476;SDS011;65006;51.698;-0.292;2023-07-20T08:57:33;2.35;;;0.65;;
22476;SDS011;65006;51.698;-0.292;2023-07-20T09:00:02;1.20;;;0.70;;
22476;SDS011;65006;51.698;-0.292;2023-07-20T09:02:38;1.55;;;0.85;;
22476;SDS011;65006;51.698;-0.292;2023-07-20T09:05:08;1.23;;;0.77;;
22476;SDS011;65006;51.698;-0.292;2023-07-20T09:07:39;0.77;;;0.47;;
22476;SDS011;65006;51.698;-0.292;2023-07-20T09:10:06;2.10;;;0.55;;
22476;SDS011;65006;51.698;-0.292;2023-07-20T09:12:35;1.10;;;0.50;;
22476;SDS011;65006;51.698;-0.292;2023-07-20T09:15:02;1.83;;;0.55;;
22476;SDS011;65006;51.698;-0.292;2023-07-20T09:17:28;3.63;;;0.50;;
22476;SDS011;65006;51.698;-0.292;2023-07-20T09:19:54;2.70;;;0.90;;
22476;SDS011;65006;51.698;-0.292;2023-07-20T09:22:20;1.35;;;0.73;;
22476;SDS011;65006;51.698;-0.292;2023-07-20T09:24:46;2.05;;;0.82;;
22476;SDS011;65006;51.698;-0.292;2023-07-20T09:27:12;2.75;;;0.80;;
22476;SDS011;65006;51.698;-0.292;2023-07-20T09:29:48;2.53;;;0.60;;
22476;SDS011;65006;51.698;-0.292;2023-07-20T09:32:14;2.47;;;0.80;;
22476;SDS011;65006;51.698;-0.292;2023-07-20T09:34:45;1.77;;;0.75;;
22476;SDS011;65006;51.698;-0.292;2023-07-20T09:37:11;1.73;;;0.90;;
22476;SDS011;65006;51.698;-0.292;2023-07-20T09:39:46;1.50;;;0.80;;
22476;SDS011;65006;51.698;-0.292;2023-07-20T09:42:13;2.13;;;0.70;;
22476;SDS011;65006;51.698;-0.292;2023-07-20T09:44:39;2.03;;;0.70;;
22476;SDS011;65006;51.698;-0.292;2023-07-20T09:47:05;1.52;;;0.77;;
22476;SDS011;65006;51.698;-0.292;2023-07-20T09:49:32;1.25;;;0.60;;
22476;SDS011;65006;51.698;-0.292;2023-07-20T09:51:58;0.77;;;0.47;;
22476;SDS011;65006;51.698;-0.292;2023-07-20T09:54:26;0.85;;;0.63;;
22476;SDS011;65006;51.698;-0.292;2023-07-20T09:56:53;6.03;;;0.80;;
22476;SDS011;65006;51.698;-0.292;2023-07-20T09:59:20;2.15;;;0.85;;
22476;SDS011;65006;51.698;-0.292;2023-07-20T10:01:46;1.25;;;0.65;;
22476;SDS011;65006;51.698;-0.292;2023-07-20T10:04:13;0.95;;;0.50;;
22476;SDS011;65006;51.698;-0.292;2023-07-20T10:06:41;1.70;;;1.00;;
22476;SDS011;65006;51.698;-0.292;2023-07-20T10:09:08;0.80;;;0.50;;
22476;SDS011;65006;51.698;-0.292;2023-07-20T10:11:36;0.88;;;0.50;;
22476;SDS011;65006;51.698;-0.292;2023-07-20T10:14:03;0.80;;;0.47;;
22476;SDS011;65006;51.698;-0.292;2023-07-20T10:16:32;0.85;;;0.60;;
22476;SDS011;65006;51.698;-0.292;2023-07-20T10:21:29;0.75;;;0.40;;
22476;SDS011;65006;51.698;-0.292;2023-07-20T10:23:58;0.60;;;0.40;;
22476;SDS011;65006;51.698;-0.292;2023-07-20T10:26:25;1.35;;;0.47;;
22476;SDS011;65006;51.698;-0.292;2023-07-20T10:28:51;1.27;;;0.40;;
22476;SDS011;65006;51.698;-0.292;2023-07-20T10:31:18;1.05;;;0.60;;
22476;SDS011;65006;51.698;-0.292;2023-07-20T10:33:45;2.28;;;0.60;;
22476;SDS011;65006;51.698;-0.292;2023-07-20T10:36:11;1.55;;;0.43;;
22476;SDS011;65006;51.698;-0.292;2023-07-20T10:38:38;1.08;;;0.30;;
22476;SDS011;65006;51.698;-0.292;2023-07-20T10:41:16;1.17;;;0.20;;
22476;SDS011;65006;51.698;-0.292;2023-07-20T10:43:42;5.28;;;0.57;;
22476;SDS011;65006;51.698;-0.292;2023-07-20T10:46:10;5.57;;;0.68;;
22476;SDS011;65006;51.698;-0.292;2023-07-20T10:48:36;1.27;;;0.40;;
22476;SDS011;65006;51.698;-0.292;2023-07-20T10:51:22;1.02;;;0.50;;
22476;SDS011;65006;51.698;-0.292;2023-07-20T10:53:49;0.32;;;0.30;;
22476;SDS011;65006;51.698;-0.292;2023-07-20T10:56:19;1.33;;;0.47;;
22476;SDS011;65006;51.698;-0.292;2023-07-20T10:58:45;1.50;;;0.55;;
22476;SDS011;65006;51.698;-0.292;2023-07-20T11:01:17;3.35;;;0.40;;
22476;SDS011;65006;51.698;-0.292;2023-07-20T11:03:43;0.90;;;0.40;;
22476;SDS011;65006;51.698;-0.292;2023-07-20T11:11:23;0.77;;;0.55;;
22476;SDS011;65006;51.698;-0.292;2023-07-20T11:13:53;0.73;;;0.30;;
22476;SDS011;65006;51.698;-0.292;2023-07-20T11:16:20;1.75;;;0.65;;
22476;SDS011;65006;51.698;-0.292;2023-07-20T11:18:57;0.85;;;0.55;;
22476;SDS011;65006;51.698;-0.292;2023-07-20T11:21:23;0.38;;;0.35;;
22476;SDS011;65006;51.698;-0.292;2023-07-20T11:23:49;0.95;;;0.40;;
22476;SDS011;65006;51.698;-0.292;2023-07-20T11:26:16;0.70;;;0.40;;
22476;SDS011;65006;51.698;-0.292;2023-07-20T11:28:43;0.75;;;0.40;;
22476;SDS011;65006;51.698;-0.292;2023-07-20T11:31:09;0.65;;;0.47;;
22476;SDS011;65006;51.698;-0.292;2023-07-20T11:33:35;1.65;;;0.63;;
22476;SDS011;65006;51.698;-0.292;2023-07-20T11:36:01;5.80;;;0.50;;
22476;SDS011;65006;51.698;-0.292;2023-07-20T11:38:27;1.15;;;0.52;;
22476;SDS011;65006;51.698;-0.292;2023-07-20T11:43:19;1.60;;;0.65;;
22476;SDS011;65006;51.698;-0.292;2023-07-20T11:45:48;0.38;;;0.38;;
22476;SDS011;65006;51.698;-0.292;2023-07-20T11:48:15;0.68;;;0.38;;
22476;SDS011;65006;51.698;-0.292;2023-07-20T11:50:41;1.58;;;0.50;;
22476;SDS011;65006;51.698;-0.292;2023-07-20T11:53:07;1.02;;;0.52;;
22476;SDS011;65006;51.698;-0.292;2023-07-20T11:58:03;0.50;;;0.43;;
22476;SDS011;65006;51.698;-0.292;2023-07-20T12:00:29;2.45;;;0.50;;
22476;SDS011;65006;51.698;-0.292;2023-07-20T12:02:55;0.50;;;0.50;;
22476;SDS011;65006;51.698;-0.292;2023-07-20T12:05:24;1.40;;;0.47;;
22476;SDS011;65006;51.698;-0.292;2023-07-20T12:07:56;0.52;;;0.40;;
22476;SDS011;65006;51.698;-0.292;2023-07-20T12:10:25;0.60;;;0.28;;
22476;SDS011;65006;51.698;-0.292;2023-07-20T12:12:51;1.02;;;0.40;;
22476;SDS011;65006;51.698;-0.292;2023-07-20T12:17:51;0.32;;;0.30;;
22476;SDS011;65006;51.698;-0.292;2023-07-20T12:20:30;0.63;;;0.30;;
22476;SDS011;65006;51.698;-0.292;2023-07-20T12:22:57;1.65;;;0.22;;
22476;SDS011;65006;51.698;-0.292;2023-07-20T12:25:31;0.70;;;0.40;;
22476;SDS011;65006;51.698;-0.292;2023-07-20T12:28:00;2.05;;;0.50;;
22476;SDS011;65006;51.698;-0.292;2023-07-20T12:30:28;0.80;;;0.73;;
22476;SDS011;65006;51.698;-0.292;2023-07-20T12:32:54;1.50;;;0.50;;
22476;SDS011;65006;51.698;-0.292;2023-07-20T12:35:20;4.50;;;0.50;;
22476;SDS011;65006;51.698;-0.292;2023-07-20T12:37:49;1.90;;;0.50;;
22476;SDS011;65006;51.698;-0.292;2023-07-20T12:40:16;1.38;;;0.85;;
22476;SDS011;65006;51.698;-0.292;2023-07-20T12:42:42;0.77;;;0.28;;
22476;SDS011;65006;51.698;-0.292;2023-07-20T12:45:09;0.20;;;0.20;;
22476;SDS011;65006;51.698;-0.292;2023-07-20T12:47:36;0.75;;;0.43;;
22476;SDS011;65006;51.698;-0.292;2023-07-20T12:50:02;2.10;;;0.30;;
22476;SDS011;65006;51.698;-0.292;2023-07-20T12:52:31;0.63;;;0.20;;
22476;SDS011;65006;51.698;-0.292;2023-07-20T12:54:57;0.40;;;0.38;;
22476;SDS011;65006;51.698;-0.292;2023-07-20T12:57:23;0.45;;;0.35;;
22476;SDS011;65006;51.698;-0.292;2023-07-20T12:59:49;2.97;;;0.40;;
22476;SDS011;65006;51.698;-0.292;2023-07-20T13:02:15;2.05;;;0.40;;
22476;SDS011;65006;51.698;-0.292;2023-07-20T13:04:42;2.00;;;0.43;;
22476;SDS011;65006;51.698;-0.292;2023-07-20T13:07:09;1.45;;;0.50;;
22476;SDS011;65006;51.698;-0.292;2023-07-20T13:09:39;1.15;;;0.50;;
22476;SDS011;65006;51.698;-0.292;2023-07-20T13:12:05;1.77;;;0.60;;
22476;SDS011;65006;51.698;-0.292;2023-07-20T13:14:31;1.83;;;0.70;;
22476;SDS011;65006;51.698;-0.292;2023-07-20T13:16:57;1.17;;;0.50;;
22476;SDS011;65006;51.698;-0.292;2023-07-20T13:19:23;0.32;;;0.32;;
22476;SDS011;65006;51.698;-0.292;2023-07-20T13:21:49;0.80;;;0.30;;
22476;SDS011;65006;51.698;-0.292;2023-07-20T13:24:16;0.90;;;0.60;;
22476;SDS011;65006;51.698;-0.292;2023-07-20T13:26:42;2.20;;;0.57;;
22476;SDS011;65006;51.698;-0.292;2023-07-20T13:29:10;2.63;;;0.90;;
22476;SDS011;65006;51.698;-0.292;2023-07-20T13:31:36;1.05;;;0.60;;
22476;SDS011;65006;51.698;-0.292;2023-07-20T13:34:02;1.85;;;0.60;;
22476;SDS011;65006;51.698;-0.292;2023-07-20T13:36:28;0.88;;;0.50;;
22476;SDS011;65006;51.698;-0.292;2023-07-20T13:38:54;0.55;;;0.30;;
22476;SDS011;65006;51.698;-0.292;2023-07-20T13:41:20;0.95;;;0.43;;
22476;SDS011;65006;51.698;-0.292;2023-07-20T13:43:47;0.90;;;0.50;;
22476;SDS011;65006;51.698;-0.292;2023-07-20T13:46:13;1.15;;;0.70;;
22476;SDS011;65006;51.698;-0.292;2023-07-20T13:48:39;0.60;;;0.30;;
22476;SDS011;65006;51.698;-0.292;2023-07-20T13:51:05;0.82;;;0.52;;
22476;SDS011;65006;51.698;-0.292;2023-07-20T13:53:31;0.85;;;0.60;;
22476;SDS011;65006;51.698;-0.292;2023-07-20T13:55:57;1.40;;;0.60;;
22476;SDS011;65006;51.698;-0.292;2023-07-20T13:58:24;0.85;;;0.60;;
22476;SDS011;65006;51.698;-0.292;2023-07-20T14:00:50;1.30;;;0.60;;
22476;SDS011;65006;51.698;-0.292;2023-07-20T14:03:16;1.27;;;0.65;;
22476;SDS011;65006;51.698;-0.292;2023-07-20T14:05:42;0.60;;;0.60;;
22476;SDS011;65006;51.698;-0.292;2023-07-20T14:08:08;2.30;;;0.90;;
22476;SDS011;65006;51.698;-0.292;2023-07-20T14:10:35;0.88;;;0.50;;
22476;SDS011;65006;51.698;-0.292;2023-07-20T14:13:01;0.82;;;0.60;;
22476;SDS011;65006;51.698;-0.292;2023-07-20T14:15:27;1.17;;;0.68;;
22476;SDS011;65006;51.698;-0.292;2023-07-20T14:17:53;1.20;;;0.60;;
22476;SDS011;65006;51.698;-0.292;2023-07-20T14:20:19;0.55;;;0.43;;
22476;SDS011;65006;51.698;-0.292;2023-07-20T14:22:45;0.55;;;0.50;;
22476;SDS011;65006;51.698;-0.292;2023-07-20T14:25:12;0.93;;;0.77;;
22476;SDS011;65006;51.698;-0.292;2023-07-20T14:27:38;0.40;;;0.35;;
22476;SDS011;65006;51.698;-0.292;2023-07-20T14:30:05;2.40;;;0.43;;
22476;SDS011;65006;51.698;-0.292;2023-07-20T14:32:31;1.15;;;0.32;;
22476;SDS011;65006;51.698;-0.292;2023-07-20T14:34:58;1.05;;;0.47;;
22476;SDS011;65006;51.698;-0.292;2023-07-20T14:37:24;1.60;;;0.50;;
22476;SDS011;65006;51.698;-0.292;2023-07-20T14:39:50;1.88;;;0.60;;
22476;SDS011;65006;51.698;-0.292;2023-07-20T14:42:17;0.50;;;0.35;;
22476;SDS011;65006;51.698;-0.292;2023-07-20T14:44:43;0.40;;;0.40;;
22476;SDS011;65006;51.698;-0.292;2023-07-20T14:47:09;0.80;;;0.30;;
22476;SDS011;65006;51.698;-0.292;2023-07-20T14:49:35;0.77;;;0.43;;
22476;SDS011;65006;51.698;-0.292;2023-07-20T14:52:02;1.42;;;0.52;;
22476;SDS011;65006;51.698;-0.292;2023-07-20T14:54:28;1.13;;;0.50;;
22476;SDS011;65006;51.698;-0.292;2023-07-20T14:56:54;0.52;;;0.40;;
22476;SDS011;65006;51.698;-0.292;2023-07-20T14:59:21;1.20;;;0.50;;
22476;SDS011;65006;51.698;-0.292;2023-07-20T15:01:47;0.88;;;0.77;;
22476;SDS011;65006;51.698;-0.292;2023-07-20T15:04:13;2.78;;;0.60;;
22476;SDS011;65006;51.698;-0.292;2023-07-20T15:06:40;2.33;;;0.55;;
22476;SDS011;65006;51.698;-0.292;2023-07-20T15:09:06;1.05;;;0.60;;
22476;SDS011;65006;51.698;-0.292;2023-07-20T15:11:33;1.38;;;0.30;;
22476;SDS011;65006;51.698;-0.292;2023-07-20T15:13:59;0.80;;;0.30;;